Portada
METAR-TAF:

METAR-TAF

Aeropuertos :

Ghriss, Argelia

latitud: 35-12N, longitud: 000-08E, altitud: 514 m

Observación

El informe se hizo hace 18 minutos, a las 02:00 UTC
Viento 6 kt del sur-sureste
Temperatura 8°C
Humedad 66%
Presión 1020 hPa
Visibilidad 10 km o más
Nubes dispersas a una altura de 2600 ft

METAR: DAOV 240200Z 15006KT 9999 SCT026 08/02 Q1020

Hora: 03:18 (02:18 UTC)

Pronóstico

El informe se hizo hace 3 horas y 18 minutos, a las 23:00 UTC
Pronóstico válido del 24 a las 00 UTC al 24 a las 09 UTC
Viento 10 kt del sureste
Visibilidad 10 km o más
Nubes dispersas a una altura de 2600 ft

TAF: DAOV 232300Z 2400/2409 14010KT 9999 SCT026

Observaciones y pronósticos meteorológicos de más de 4000 aeropuertos (mensajes METAR y TAF).

Los puntos amarillos y rojos representan las estaciones disponibles.

Ponga el ratón en el punto deseado para ver el nombre de la estación.

Haga clic para ver las observaciones y los pronósticos meteorológicos.

Para cambiar el mapa : haga clic en los botones verdes con una cruz de color negro para hacer un zoom, en el botón verde con un guión para alejar o en las flechas verdes para mapas adyacentes.


METAR-TAF: